createdAt,value
2018-07-15T09:34:05.404Z,38.84
2018-07-15T09:36:33.759Z,41.63
2018-07-15T09:39:02.109Z,38.31
2018-07-15T09:41:30.710Z,38.31
2018-07-15T09:43:58.977Z,38.29
2018-07-15T09:46:27.361Z,39.22
2018-07-15T09:48:55.747Z,41.76
2018-07-15T09:51:24.109Z,39.51
2018-07-15T09:53:52.384Z,38.91
2018-07-15T09:56:20.662Z,38.33
2018-07-15T09:58:49.154Z,38.51
2018-07-15T10:01:17.313Z,38.94
2018-07-15T10:03:45.596Z,39.20
2018-07-15T10:06:13.768Z,40.43
2018-07-15T10:08:42.055Z,43.90
2018-07-15T10:11:10.318Z,38.12
2018-07-15T10:13:38.597Z,38.33
2018-07-15T10:16:06.865Z,38.76
2018-07-15T10:18:35.149Z,38.85
2018-07-15T10:21:03.428Z,37.46
2018-07-15T10:23:31.500Z,38.25
2018-07-15T10:25:59.453Z,37.50
2018-07-15T10:28:27.286Z,37.78
2018-07-15T10:30:55.501Z,38.76
2018-07-15T10:33:23.772Z,37.69
2018-07-15T10:35:52.046Z,37.65
2018-07-15T10:38:20.320Z,37.41
2018-07-15T10:40:48.705Z,38.08
2018-07-15T10:43:17.081Z,37.30
2018-07-15T10:45:45.462Z,37.10
2018-07-15T10:48:13.725Z,36.04
2018-07-15T10:50:42.014Z,40.10
2018-07-15T10:53:10.399Z,37.07
2018-07-15T10:55:38.666Z,37.79
2018-07-15T10:58:06.942Z,36.52
2018-07-15T11:00:35.310Z,36.53
2018-07-15T11:03:03.604Z,36.38
2018-07-15T11:05:31.975Z,40.63
2018-07-15T11:08:00.239Z,36.70
2018-07-15T11:10:28.216Z,36.78
2018-07-15T11:12:56.586Z,36.64
2018-07-15T11:15:24.726Z,35.24
2018-07-15T11:17:53.034Z,35.37
2018-07-15T11:20:21.314Z,36.25
2018-07-15T11:22:49.684Z,38.87
2018-07-15T11:25:17.866Z,36.89
2018-07-15T11:27:46.247Z,36.83
2018-07-15T11:30:14.617Z,35.86
2018-07-15T11:32:42.483Z,36.67
2018-07-15T11:35:10.848Z,35.10
2018-07-15T11:37:39.123Z,37.44
2018-07-15T11:40:07.530Z,36.12
2018-07-15T11:42:35.698Z,35.44
2018-07-15T11:45:04.295Z,35.69
2018-07-15T11:47:32.646Z,35.43
2018-07-15T11:50:00.930Z,36.18
2018-07-15T11:52:29.193Z,35.80
2018-07-15T11:54:57.508Z,34.89
2018-07-15T11:57:25.858Z,34.14
2018-07-15T11:59:54.239Z,34.90
2018-07-15T12:02:22.746Z,34.83
2018-07-15T12:04:50.987Z,34.93
2018-07-15T12:07:19.258Z,35.78
2018-07-15T12:09:47.584Z,38.25
2018-07-15T12:12:15.904Z,36.22
2018-07-15T12:14:44.199Z,33.69
2018-07-15T12:17:12.677Z,35.36
2018-07-15T12:19:40.857Z,34.61
2018-07-15T12:22:09.227Z,34.88
2018-07-15T12:24:37.654Z,33.66
2018-07-15T12:27:05.865Z,34.37
2018-07-15T12:29:34.255Z,35.03
2018-07-15T12:32:02.533Z,34.06
2018-07-15T12:34:30.569Z,33.86
2018-07-15T12:36:59.090Z,34.85
2018-07-15T12:39:27.354Z,34.18
2018-07-15T12:41:55.752Z,34.08
2018-07-15T12:44:24.148Z,34.93
2018-07-15T12:46:52.416Z,34.91
2018-07-15T12:49:20.663Z,32.85
2018-07-15T12:51:49.007Z,38.80
2018-07-15T12:54:17.455Z,33.48
2018-07-15T12:56:45.936Z,35.28
2018-07-15T12:59:14.318Z,33.02
2018-07-15T13:01:42.895Z,33.15
2018-07-15T13:04:11.275Z,33.50
2018-07-15T13:06:39.867Z,34.09
2018-07-15T13:09:08.331Z,34.04
2018-07-15T13:11:36.634Z,33.86
2018-07-15T13:14:04.880Z,32.96
2018-07-15T13:16:33.266Z,33.72
2018-07-15T13:19:01.678Z,34.63
2018-07-15T13:21:29.815Z,33.60
2018-07-15T13:23:58.287Z,33.20
2018-07-15T13:26:26.699Z,33.20
2018-07-15T13:28:55.142Z,33.82
2018-07-15T13:31:23.421Z,34.21
2018-07-15T13:33:51.954Z,34.39
2018-07-15T13:36:20.190Z,33.81
2018-07-15T13:38:48.671Z,32.86
2018-07-15T13:41:16.962Z,33.06
2018-07-15T13:43:45.524Z,35.12
2018-07-15T13:46:13.862Z,34.84
2018-07-15T13:48:42.387Z,34.63
2018-07-15T13:51:10.643Z,34.07
2018-07-15T13:53:39.244Z,34.30
2018-07-15T13:56:07.618Z,34.19
2018-07-15T13:58:36.027Z,33.71
2018-07-15T14:01:04.475Z,33.73
2018-07-15T14:03:32.742Z,33.64
2018-07-15T14:06:01.032Z,33.06
2018-07-15T14:08:29.302Z,33.05
2018-07-15T14:10:57.671Z,33.46
2018-07-15T14:13:25.979Z,33.96
2018-07-15T14:15:54.406Z,33.80
2018-07-15T14:18:22.916Z,35.15
2018-07-15T14:20:51.199Z,34.30
2018-07-15T14:23:19.462Z,34.34
2018-07-15T14:25:47.743Z,32.44
2018-07-15T14:28:16.210Z,39.13
2018-07-15T14:30:44.569Z,33.02
2018-07-15T14:33:13.082Z,33.69
2018-07-15T14:35:41.491Z,32.41
2018-07-15T14:38:09.529Z,33.07
2018-07-15T14:40:37.996Z,34.33
2018-07-15T14:43:06.527Z,34.85
2018-07-15T14:45:40.176Z,32.53
2018-07-15T14:48:08.394Z,30.60
2018-07-15T14:50:36.740Z,32.47
2018-07-15T14:53:05.106Z,32.53
2018-07-15T14:55:33.418Z,31.61
2018-07-15T14:58:01.768Z,32.84
2018-07-15T15:00:29.846Z,32.24
2018-07-15T15:02:58.142Z,31.69
2018-07-15T15:05:26.604Z,30.98
2018-07-15T15:07:54.522Z,31.39
2018-07-15T15:10:23.091Z,33.71
2018-07-15T15:12:51.326Z,32.11
2018-07-15T15:15:19.402Z,32.67
2018-07-15T15:17:47.636Z,31.46
2018-07-15T15:20:16.203Z,31.46
2018-07-15T15:22:44.199Z,30.70
2018-07-15T15:25:12.630Z,37.92
2018-07-15T15:27:41.081Z,30.86
2018-07-15T15:30:09.392Z,30.38
2018-07-15T15:32:37.631Z,33.29
2018-07-15T15:35:06.009Z,30.81
2018-07-15T15:37:34.498Z,35.49
2018-07-15T15:40:02.875Z,31.60
2018-07-15T15:42:31.196Z,30.61
2018-07-15T15:44:59.524Z,31.36
2018-07-15T15:47:28.001Z,30.77
2018-07-15T15:49:56.298Z,31.30
2018-07-15T15:52:24.853Z,30.88
2018-07-15T15:54:53.240Z,30.67
2018-07-15T15:57:21.534Z,30.70
2018-07-15T15:59:49.985Z,30.85
2018-07-15T16:02:18.260Z,30.54
2018-07-15T16:04:46.883Z,30.78
2018-07-15T16:07:15.119Z,31.43
2018-07-15T16:09:43.606Z,31.52
2018-07-15T16:12:12.010Z,32.68
2018-07-15T16:14:40.355Z,31.71
2018-07-15T16:17:08.767Z,32.10
2018-07-15T16:19:37.143Z,32.26
2018-07-15T16:22:05.593Z,32.85
2018-07-15T16:24:34.919Z,33.85
2018-07-15T16:27:03.328Z,32.76
2018-07-15T16:29:31.647Z,32.88
2018-07-15T16:31:59.921Z,33.23
2018-07-15T16:34:28.325Z,32.89
2018-07-15T16:36:56.889Z,33.69
2018-07-15T16:39:25.151Z,33.82
2018-07-15T16:41:53.504Z,33.22
2018-07-15T16:44:21.767Z,33.81
2018-07-15T16:46:50.415Z,34.55
2018-07-15T16:49:18.882Z,34.63
2018-07-15T16:51:47.361Z,34.81
2018-07-15T16:54:15.733Z,34.34
2018-07-15T16:56:44.116Z,34.82
2018-07-15T16:59:12.495Z,34.99
2018-07-15T17:01:40.982Z,36.60
2018-07-15T17:04:09.344Z,37.62
2018-07-15T17:06:37.724Z,36.25
2018-07-15T17:09:06.373Z,35.78
2018-07-15T17:11:35.155Z,36.51
2018-07-15T17:14:03.500Z,37.11
2018-07-15T17:16:31.474Z,37.81
2018-07-15T17:18:59.824Z,36.25
2018-07-15T17:21:28.094Z,39.37
2018-07-15T17:23:56.019Z,40.05
2018-07-15T17:26:24.337Z,37.78
2018-07-15T17:28:52.716Z,37.95
2018-07-15T17:31:20.591Z,37.31
2018-07-15T17:33:48.826Z,38.54
2018-07-15T17:36:17.506Z,38.33
2018-07-15T17:38:45.381Z,39.04
2018-07-15T17:41:13.749Z,39.53
2018-07-15T17:43:42.196Z,43.88
2018-07-15T17:46:10.309Z,39.94
2018-07-15T17:48:38.617Z,39.74
2018-07-15T17:51:06.984Z,39.73
2018-07-15T17:53:35.871Z,42.00
2018-07-15T17:56:04.357Z,39.60
2018-07-15T17:58:32.706Z,39.67
2018-07-15T18:01:01.159Z,40.27
2018-07-15T18:03:29.501Z,40.78
2018-07-15T18:05:58.066Z,41.86
2018-07-15T18:08:26.389Z,41.80
2018-07-15T18:10:54.940Z,42.02
2018-07-15T18:13:23.182Z,41.55
2018-07-15T18:15:51.726Z,41.99
2018-07-15T18:18:20.177Z,42.42
2018-07-15T18:20:48.553Z,42.50
2018-07-15T18:23:17.035Z,42.62
2018-07-15T18:25:45.310Z,43.51
2018-07-15T18:28:13.718Z,43.60
2018-07-15T18:30:42.071Z,43.78
2018-07-15T18:33:10.333Z,44.16
2018-07-15T18:35:38.699Z,44.22
2018-07-15T18:38:07.193Z,43.66
2018-07-15T18:40:35.582Z,43.07
2018-07-15T18:43:04.101Z,43.87
2018-07-15T18:45:32.440Z,43.45
2018-07-15T18:48:00.890Z,43.41
2018-07-15T18:50:29.293Z,43.47
2018-07-15T18:52:57.673Z,43.98
2018-07-15T18:55:26.292Z,45.07
2018-07-15T18:57:54.490Z,45.00
2018-07-15T19:00:22.776Z,44.55
2018-07-15T19:02:50.652Z,45.80
2018-07-15T19:05:18.818Z,45.84
2018-07-15T19:07:47.198Z,45.81
2018-07-15T19:10:15.262Z,46.50
2018-07-15T19:12:43.583Z,46.63
2018-07-15T19:15:11.626Z,46.87
2018-07-15T19:17:39.517Z,47.02
2018-07-15T19:20:07.849Z,46.40
2018-07-15T19:22:36.161Z,46.58
2018-07-15T19:25:04.126Z,47.92
2018-07-15T19:27:32.470Z,47.94
2018-07-15T19:30:00.779Z,47.94
2018-07-15T19:32:28.662Z,48.28
2018-07-15T19:34:56.778Z,48.75
2018-07-15T19:37:25.089Z,49.62
2018-07-15T19:39:53.339Z,50.26
2018-07-15T19:42:21.604Z,50.08
2018-07-15T19:44:49.935Z,49.74
2018-07-15T19:47:18.149Z,50.18
2018-07-15T19:49:46.430Z,50.32
2018-07-15T19:52:14.745Z,50.82
2018-07-15T19:54:43.187Z,51.42
2018-07-15T19:57:11.469Z,51.95
2018-07-15T19:59:39.771Z,51.95
2018-07-15T20:02:08.018Z,52.93
2018-07-15T20:04:36.301Z,52.60
2018-07-15T20:07:04.606Z,52.70
2018-07-15T20:09:32.739Z,53.79
2018-07-15T20:12:01.023Z,53.85
2018-07-15T20:14:29.330Z,54.44
2018-07-15T20:16:57.674Z,53.12
2018-07-15T20:19:26.045Z,53.27
2018-07-15T20:21:54.353Z,53.61
2018-07-15T20:24:22.813Z,52.97
2018-07-15T20:26:51.077Z,53.27
2018-07-15T20:29:19.385Z,54.10
2018-07-15T20:31:47.725Z,54.52
2018-07-15T20:34:16.005Z,54.05
2018-07-15T20:36:44.313Z,53.53
2018-07-15T20:39:12.650Z,53.97
2018-07-15T20:41:40.929Z,53.38
2018-07-15T20:44:09.479Z,53.83
2018-07-15T20:46:37.618Z,53.76
2018-07-15T20:49:05.962Z,54.27
2018-07-15T20:51:34.163Z,54.34
2018-07-15T20:54:02.514Z,54.35
2018-07-15T20:56:30.594Z,54.37
2018-07-15T20:58:58.759Z,54.81
2018-07-15T21:01:27.041Z,54.85
2018-07-15T21:03:59.285Z,55.40
2018-07-15T21:06:27.817Z,55.58
2018-07-15T21:08:56.155Z,55.55
2018-07-15T21:11:24.573Z,55.39
2018-07-15T21:13:52.616Z,56.25
2018-07-15T21:16:21.255Z,57.08
2018-07-15T21:18:49.738Z,56.61
2018-07-15T21:21:17.984Z,55.71
2018-07-15T21:23:46.535Z,56.86
2018-07-15T21:26:15.045Z,56.80
2018-07-15T21:28:43.218Z,56.60
2018-07-15T21:31:11.805Z,56.10
2018-07-15T21:33:40.496Z,56.03
2018-07-15T21:42:57.091Z,55.84
2018-07-15T21:45:25.718Z,56.09
2018-07-15T21:47:54.298Z,56.51
2018-07-15T21:50:22.879Z,57.18
2018-07-15T21:52:51.527Z,56.41
2018-07-15T21:55:20.353Z,56.07
2018-07-15T21:57:48.796Z,56.29
2018-07-15T22:00:17.522Z,56.35
2018-07-15T22:02:46.404Z,56.75
2018-07-15T22:05:15.092Z,56.87
2018-07-15T22:07:54.248Z,57.26
2018-07-15T22:10:42.278Z,57.09
2018-07-15T22:13:10.536Z,57.42
2018-07-15T22:15:39.020Z,57.35
2018-07-15T22:18:07.358Z,57.05
2018-07-15T22:20:36.079Z,57.76
2018-07-15T22:23:04.564Z,58.30
2018-07-15T22:25:32.910Z,58.15
2018-07-15T22:28:01.641Z,58.39
2018-07-15T22:30:29.973Z,58.32
2018-07-15T22:32:58.346Z,58.39
2018-07-15T22:35:26.671Z,58.83
2018-07-15T22:37:54.998Z,57.68
2018-07-15T22:40:23.269Z,58.65
2018-07-15T22:42:51.661Z,58.81
2018-07-15T22:45:19.915Z,59.02
2018-07-15T22:47:48.238Z,59.62
2018-07-15T22:50:16.473Z,59.32
2018-07-15T22:52:44.766Z,59.39
2018-07-15T22:55:13.074Z,58.85
2018-07-15T22:57:41.414Z,58.49
2018-07-15T23:00:09.781Z,57.43
2018-07-15T23:02:38.195Z,57.71
2018-07-15T23:05:44.625Z,57.09
2018-07-15T23:08:12.948Z,56.72
2018-07-15T23:10:41.186Z,55.94
2018-07-15T23:13:10.031Z,55.75
2018-07-15T23:15:38.761Z,55.98
2018-07-15T23:18:07.045Z,55.70
2018-07-15T23:20:36.066Z,56.19
2018-07-15T23:23:05.209Z,56.68
2018-07-15T23:25:33.649Z,57.53
2018-07-15T23:28:02.333Z,57.52
2018-07-15T23:30:32.306Z,57.07
2018-07-15T23:33:00.933Z,57.11
2018-07-15T23:35:29.265Z,56.88
2018-07-15T23:37:57.485Z,56.33
2018-07-15T23:40:25.913Z,56.31
2018-07-15T23:42:55.020Z,56.57
2018-07-15T23:45:24.102Z,56.69
2018-07-15T23:47:52.633Z,56.18
2018-07-15T23:50:21.097Z,56.57
2018-07-15T23:52:49.378Z,56.69
2018-07-15T23:55:17.723Z,56.97
2018-07-15T23:57:46.041Z,56.28
